DAL7525 KTUS-KPSP
Flight info
| Callsign | DAL7525 |
|---|---|
| Flight time | N/A |
| Altitude | 34000 |
| Route | TUS9 GBN KOFFA CURIV RDBUL1 |
| Aircraft | A320/M-SDE3FGHIRWY/LB1 |
Departure
| Time | 2026-05-05 16:31 |
|---|---|
| Airport | Tucson International Airport (KTUS) |
Arrival
| Time | N/A |
|---|---|
| Airport | Palm Springs International Airport (KPSP) |
| Time | Latitude | Longitude | Altitude | Speed | Heading |
|---|---|---|---|---|---|
| 2026-05-05 12:57 | 32.11851 | -110.93731 | 2594 ft | 0 kts | 58° |
| 2026-05-05 16:22 | 32.11831 | -110.93766 | 2583 ft | 4 kts | 50° |
| 2026-05-05 16:23 | 32.11818 | -110.93784 | 2583 ft | 0 kts | 48° |
| 2026-05-05 16:25 | 32.11818 | -110.93783 | 2583 ft | 1 kts | 49° |
| 2026-05-05 16:25 | 32.11799 | -110.93763 | 2586 ft | 1 kts | 186° |
| 2026-05-05 16:25 | 32.11761 | -110.93791 | 2592 ft | 9 kts | 224° |
| 2026-05-05 16:26 | 32.11770 | -110.93879 | 2590 ft | 5 kts | 311° |
| 2026-05-05 16:26 | 32.11877 | -110.94002 | 2593 ft | 18 kts | 315° |
| 2026-05-05 16:27 | 32.11977 | -110.94121 | 2585 ft | 21 kts | 315° |
| 2026-05-05 16:27 | 32.12063 | -110.94227 | 2590 ft | 17 kts | 314° |
| 2026-05-05 16:27 | 32.12155 | -110.94331 | 2585 ft | 19 kts | 315° |
| 2026-05-05 16:27 | 32.12240 | -110.94433 | 2582 ft | 16 kts | 315° |
| 2026-05-05 16:28 | 32.12330 | -110.94533 | 2577 ft | 20 kts | 316° |
| 2026-05-05 16:28 | 32.12377 | -110.94635 | 2573 ft | 14 kts | 253° |
| 2026-05-05 16:28 | 32.12362 | -110.94659 | 2572 ft | 0 kts | 229° |
| 2026-05-05 16:29 | 32.12361 | -110.94661 | 2572 ft | 3 kts | 229° |
| 2026-05-05 16:29 | 32.12314 | -110.94716 | 2574 ft | 12 kts | 207° |
| 2026-05-05 16:29 | 32.12264 | -110.94703 | 2576 ft | 0 kts | 142° |
| 2026-05-05 16:30 | 32.12062 | -110.94472 | 2585 ft | 78 kts | 134° |
| 2026-05-05 16:30 | 32.11518 | -110.93835 | 2605 ft | 139 kts | 135° |
| 2026-05-05 16:30 | 32.10716 | -110.92888 | 2661 ft | 184 kts | 135° |
| 2026-05-05 16:31 | 32.09823 | -110.91791 | 3330 ft | 185 kts | 137° |
| 2026-05-05 16:31 | 32.08925 | -110.90725 | 4117 ft | 182 kts | 140° |
| 2026-05-05 16:31 | 32.08009 | -110.89663 | 4647 ft | 192 kts | 142° |
| 2026-05-05 16:31 | 32.06989 | -110.88495 | 4931 ft | 217 kts | 142° |
| 2026-05-05 16:32 | 32.05844 | -110.87183 | 5301 ft | 242 kts | 140° |
| 2026-05-05 16:32 | 32.04580 | -110.85727 | 5741 ft | 263 kts | 140° |
| 2026-05-05 16:32 | 32.03255 | -110.84186 | 6515 ft | 271 kts | 141° |
| 2026-05-05 16:32 | 32.01823 | -110.82750 | 7304 ft | 270 kts | 155° |
| 2026-05-05 16:33 | 32.00077 | -110.82012 | 8076 ft | 266 kts | 177° |
| 2026-05-05 16:33 | 31.98258 | -110.82121 | 8877 ft | 263 kts | 198° |
| 2026-05-05 16:33 | 31.96611 | -110.83017 | 9718 ft | 262 kts | 217° |
| 2026-05-05 16:33 | 31.95148 | -110.84332 | 10378 ft | 272 kts | 221° |
| 2026-05-05 16:34 | 31.93843 | -110.86053 | 10653 ft | 293 kts | 236° |
| 2026-05-05 16:34 | 31.92964 | -110.88223 | 11243 ft | 303 kts | 250° |
| 2026-05-05 16:34 | 31.92598 | -110.90684 | 12035 ft | 309 kts | 264° |
| 2026-05-05 16:34 | 31.92737 | -110.93228 | 12859 ft | 316 kts | 276° |
| 2026-05-05 16:35 | 31.93408 | -110.95731 | 13686 ft | 325 kts | 288° |
| 2026-05-05 16:35 | 31.94170 | -110.97311 | 14176 ft | 333 kts | 297° |
| 2026-05-05 16:35 | 31.95529 | -110.99535 | 14867 ft | 336 kts | 298° |
| 2026-05-05 16:35 | 31.96905 | -111.01767 | 15546 ft | 338 kts | 298° |
| 2026-05-05 16:36 | 31.98274 | -111.03988 | 16213 ft | 340 kts | 298° |
| 2026-05-05 16:36 | 31.99664 | -111.06248 | 16848 ft | 342 kts | 298° |
| 2026-05-05 16:36 | 32.01063 | -111.08521 | 17465 ft | 344 kts | 298° |
| 2026-05-05 16:36 | 32.02472 | -111.10817 | 18154 ft | 346 kts | 298° |
| 2026-05-05 16:37 | 32.03884 | -111.13121 | 18746 ft | 348 kts | 298° |
| 2026-05-05 16:37 | 32.05303 | -111.15441 | 19320 ft | 350 kts | 297° |
| 2026-05-05 16:37 | 32.06733 | -111.17777 | 19878 ft | 352 kts | 297° |
| 2026-05-05 16:37 | 32.08211 | -111.20086 | 20442 ft | 360 kts | 301° |
| 2026-05-05 16:38 | 32.09897 | -111.22291 | 21010 ft | 363 kts | 302° |
| 2026-05-05 16:38 | 32.11601 | -111.24511 | 21584 ft | 366 kts | 302° |
| 2026-05-05 16:38 | 32.13316 | -111.26749 | 22091 ft | 369 kts | 302° |
| 2026-05-05 16:38 | 32.15046 | -111.29008 | 22649 ft | 372 kts | 301° |
| 2026-05-05 16:39 | 32.16788 | -111.31284 | 23196 ft | 374 kts | 301° |
| 2026-05-05 16:39 | 32.18543 | -111.33572 | 23693 ft | 377 kts | 301° |
| 2026-05-05 16:39 | 32.20309 | -111.35875 | 24119 ft | 380 kts | 301° |
| 2026-05-05 16:39 | 32.22087 | -111.38196 | 24541 ft | 382 kts | 300° |
| 2026-05-05 16:40 | 32.23871 | -111.40532 | 24955 ft | 384 kts | 300° |
| 2026-05-05 16:40 | 32.25665 | -111.42880 | 25359 ft | 386 kts | 300° |
| 2026-05-05 16:40 | 32.27469 | -111.45246 | 25759 ft | 388 kts | 300° |
| 2026-05-05 16:40 | 32.29080 | -111.47742 | 26207 ft | 379 kts | 292° |
| 2026-05-05 16:41 | 32.30527 | -111.50300 | 26591 ft | 380 kts | 292° |
| 2026-05-05 16:41 | 32.31998 | -111.52914 | 27008 ft | 382 kts | 291° |
| 2026-05-05 16:41 | 32.33471 | -111.55540 | 27368 ft | 385 kts | 291° |
| 2026-05-05 16:41 | 32.34954 | -111.58188 | 27745 ft | 387 kts | 291° |
| 2026-05-05 16:42 | 32.36445 | -111.60846 | 28118 ft | 389 kts | 291° |
| 2026-05-05 16:42 | 32.37944 | -111.63516 | 28484 ft | 391 kts | 291° |
| 2026-05-05 16:42 | 32.39453 | -111.66201 | 28851 ft | 393 kts | 291° |
| 2026-05-05 16:42 | 32.40968 | -111.68895 | 29212 ft | 394 kts | 291° |
| 2026-05-05 16:43 | 32.42493 | -111.71603 | 29564 ft | 396 kts | 290° |
| 2026-05-05 16:43 | 32.44023 | -111.74324 | 29890 ft | 398 kts | 290° |
| 2026-05-05 16:43 | 32.45557 | -111.77061 | 30170 ft | 400 kts | 290° |
| 2026-05-05 16:43 | 32.47095 | -111.79807 | 30445 ft | 401 kts | 290° |
| 2026-05-05 16:44 | 32.48640 | -111.82566 | 30733 ft | 402 kts | 290° |
| 2026-05-05 16:44 | 32.50188 | -111.85331 | 30987 ft | 404 kts | 290° |
| 2026-05-05 16:44 | 32.51747 | -111.88113 | 31296 ft | 406 kts | 290° |
| 2026-05-05 16:44 | 32.53307 | -111.90898 | 31601 ft | 405 kts | 290° |
| 2026-05-05 16:45 | 32.54865 | -111.93681 | 31968 ft | 404 kts | 290° |
| 2026-05-05 16:45 | 32.56415 | -111.96451 | 32321 ft | 402 kts | 289° |
| 2026-05-05 16:45 | 32.57957 | -111.99215 | 32682 ft | 401 kts | 289° |
| 2026-05-05 16:45 | 32.59474 | -112.01933 | 33034 ft | 400 kts | 289° |
| 2026-05-05 16:46 | 32.61002 | -112.04678 | 33376 ft | 398 kts | 289° |
| 2026-05-05 16:46 | 32.62522 | -112.07414 | 33718 ft | 397 kts | 289° |
| 2026-05-05 16:46 | 32.64039 | -112.10148 | 33900 ft | 397 kts | 289° |
| 2026-05-05 16:46 | 32.65564 | -112.12901 | 33937 ft | 400 kts | 289° |
| 2026-05-05 16:47 | 32.68625 | -112.18423 | 33936 ft | 400 kts | 289° |
| 2026-05-05 16:47 | 32.71692 | -112.23946 | 33938 ft | 400 kts | 289° |
| 2026-05-05 16:48 | 32.74747 | -112.29454 | 33946 ft | 399 kts | 289° |
| 2026-05-05 16:48 | 32.77793 | -112.34968 | 33945 ft | 399 kts | 289° |
| 2026-05-05 16:49 | 32.80833 | -112.40486 | 33949 ft | 399 kts | 289° |
| 2026-05-05 16:49 | 32.83873 | -112.46006 | 33962 ft | 399 kts | 289° |
| 2026-05-05 16:50 | 32.86908 | -112.51522 | 33978 ft | 399 kts | 289° |
| 2026-05-05 16:50 | 32.89948 | -112.57055 | 34004 ft | 398 kts | 288° |
| 2026-05-05 16:51 | 32.92949 | -112.62529 | 33982 ft | 397 kts | 288° |
| 2026-05-05 16:51 | 32.96063 | -112.68002 | 33975 ft | 409 kts | 295° |
| 2026-05-05 16:52 | 32.99904 | -112.73106 | 33972 ft | 415 kts | 297° |
| 2026-05-05 16:52 | 33.03788 | -112.78202 | 33968 ft | 415 kts | 297° |
| 2026-05-05 16:53 | 33.07662 | -112.83303 | 33987 ft | 415 kts | 296° |
| 2026-05-05 16:53 | 33.11531 | -112.88423 | 33961 ft | 415 kts | 296° |
| 2026-05-05 16:54 | 33.15385 | -112.93553 | 33952 ft | 415 kts | 296° |
| 2026-05-05 16:54 | 33.19244 | -112.98682 | 33943 ft | 415 kts | 296° |
| 2026-05-05 16:55 | 33.23107 | -113.03816 | 33935 ft | 415 kts | 296° |
| 2026-05-05 16:55 | 33.26969 | -113.08951 | 33925 ft | 415 kts | 296° |
| 2026-05-05 16:56 | 33.30830 | -113.14095 | 33941 ft | 416 kts | 296° |
| 2026-05-05 16:56 | 33.34693 | -113.19252 | 33923 ft | 416 kts | 296° |